Latest Coastal Weather Observations for Eucla

IDW60701

Issued at 5:53 am WST Saturday 25 March 2017 (issued every 10 minutes, with the page automatically refreshed every 10 minutes)

About coastal observations | Map of coastal stations | Coastal observations for WA | Marine services | Other Formats
Station Details ID: 011003 Name: EUCLA Lat: -31.68 Lon: 128.90 Height: 93.1 m
Data from the previous 72 hours. | See also: Recent months at Eucla
Date/Time
WST
Temp
°C
Wind Pressure Rain since
9am
mm
Weather Cloud Vis
km
Sea
Height
m
Swell
Dir  Spd
kts
Gust
kts
hPa Trend Height
m
Period
s
Dir
25/05:30am 20.0 ESE 3 4 1013.4 - 1.0 - - - - - - -
25/05:00am 20.0 ESE 1 4 1013.3 - 1.0 - - - - - - -
25/04:30am 20.0 SSE 3 6 1012.8 - 1.0 - - - - - - -
25/04:00am 20.0 SE 2 4 1012.9 - 1.0 - - - - - - -
25/03:30am 20.0 SSW 3 4 1012.9 - 0.8 - - - - - - -
25/03:00am 20.1 CALM 0 0 1013.2 - 0.6 - - - - - - -
25/02:30am 20.1 CALM 0 0 1013.5 - 0.6 - - - - - - -
25/02:00am 20.1 S 1 4 1013.2 - 0.6 - - - - - - -
25/01:30am 20.1 CALM 0 0 1013.7 - 0.6 - - - - - - -
25/01:00am 20.0 S 4 6 1013.0 - 0.6 - - - - - - -
25/12:30am 20.1 WSW 3 5 1013.8 - 0.6 - - - - - - -
25/12:00am 20.2 SSW 5 6 1013.7 - 0.6 - - - - - - -
 
Date/Time
WST
Temp
°C
Wind Pressure Rain since
9am
mm
Weather Cloud Vis
km
Sea
Height
m
Swell
Dir  Spd
kts
Gust
kts
hPa Trend Height
m
Period
s
Dir
24/11:30pm 20.1 SSW 6 7 1013.6 - 0.6 - - - - - - -
24/11:00pm 20.3 SSW 6 8 1013.5 - 0.6 - - - - - - -
24/10:30pm 20.4 SW 7 10 1014.0 - 0.6 - - - - - - -
24/10:00pm 20.4 SSW 7 9 1013.7 - 0.6 - - - - - - -
24/09:30pm 20.4 SSW 5 8 1014.0 - 0.6 - - - - - - -
24/09:00pm 20.4 SW 5 7 1014.3 - 0.6 - - - - - - -
24/08:30pm 20.4 SSW 5 6 1014.2 - 0.6 - - - - - - -
24/08:00pm 20.7 SSW 4 5 1014.7 - 0.6 - - - - - - -
24/07:30pm 21.0 S 5 6 1014.9 - 0.6 - - - - - - -
24/07:00pm 21.1 SE 5 7 1014.3 - 0.6 - - - - - - -
24/06:30pm 21.1 SSE 5 7 1014.0 - 0.6 - - - - - - -
24/06:00pm 21.1 SSE 5 7 1013.9 - 0.6 - - - - - - -
24/05:30pm 21.4 SE 4 5 1013.6 - 0.6 - - - - - - -
24/05:00pm 21.6 SE 4 6 1013.6 - 0.6 - - - - - - -
24/04:30pm 21.7 SSE 6 8 1012.9 - 0.6 - - - - - - -
24/04:00pm 22.1 SSE 6 8 1012.9 - 0.6 - - - - - - -
24/03:30pm 22.5 SSE 6 8 1012.9 - 0.6 - - - - - - -
24/03:00pm 23.8 S 5 7 1012.8 - 0.6 Fine Partly cloudy 40 - - - -
24/02:30pm 24.1 S 6 7 1012.5 - 0.6 - - - - - - -
24/02:00pm 25.0 SW 6 8 1012.2 - 0.6 - - - - - - -
24/01:30pm 24.1 S 6 8 1011.6 - 0.6 - - - - - - -
24/01:00pm 22.7 SSE 5 7 1011.9 - 0.6 - - - - - - -
24/12:30pm 21.8 S 10 15 1012.6 - 0.6 - - - - - - -
24/12:00pm 21.7 S 6 9 1012.6 - 0.6 Rain - - - - - -
24/11:30am 22.2 S 6 10 1012.8 - 0.0 - - - - - - -
24/11:00am 22.4 SSE 7 9 1012.9 - 0.0 - - - - - - -
24/10:30am 22.2 SSW 5 7 1014.0 - 0.0 - - - - - - -
24/10:00am 21.8 SSE 7 9 1014.0 - 0.0 - - - - - - -
24/09:30am 21.2 WSW 5 7 1015.2 - 0.0 - - - - - - -
24/09:19am 21.1 SW 5 10 1015.2 - 0.0 - - - - - - -
24/09:00am 21.1 SSE 6 7 1013.2 - 1.0 Drizzle Cloudy 25 - - - -
24/08:30am 21.2 SSE 7 10 1013.3 - 1.0 - - - - - - -
24/08:00am 20.9 SSW 4 6 1014.2 - 1.0 - - - - - - -
24/07:30am 20.6 WSW 6 8 1014.7 - 1.0 - - - - - - -
24/07:00am 20.4 SSW 7 11 1014.2 - 1.0 - - - - - - -
24/06:30am 19.9 SSW 8 10 1013.5 - 1.0 - - - - - - -
24/06:00am 19.7 SSW 11 14 1013.5 - 1.0 - - - - - - -
24/05:30am 19.5 S 7 9 1012.9 - 1.0 - - - - - - -
24/05:00am 19.3 S 6 7 1012.4 - 1.0 - - - - - - -
24/04:30am 19.6 SW 7 9 1013.2 - 0.8 - - - - - - -
24/04:00am 19.7 SSW 5 7 1012.1 - 0.0 - - - - - - -
24/03:30am 19.6 SW 6 9 1011.5 - 0.0 - - - - - - -
24/03:00am 20.3 N 4 6 1011.1 - 0.0 - - - - - - -
24/02:30am 20.2 NE 7 10 1010.5 - 0.0 - - - - - - -
24/02:00am 19.8 ENE 5 7 1010.6 - 0.0 - - - - - - -
24/01:30am 19.9 ENE 5 8 1011.2 - 0.0 - - - - - - -
24/01:00am 20.0 ENE 5 8 1011.4 - 0.0 - - - - - - -
24/12:30am 19.9 NE 9 11 1011.3 - 0.0 - - - - - - -
24/12:00am 19.8 ENE 8 12 1011.7 - 0.0 - - - - - - -
 
Date/Time
WST
Temp
°C
Wind Pressure Rain since
9am
mm
Weather Cloud Vis
km
Sea
Height
m
Swell
Dir  Spd
kts
Gust
kts
hPa Trend Height
m
Period
s
Dir
23/11:30pm 19.7 ENE 9 13 1011.8 - 0.0 - - - - - - -
23/11:00pm 19.7 E 7 12 1012.6 - 0.0 - - - - - - -
23/10:30pm 19.6 E 7 11 1012.9 - 0.0 - - - - - - -
23/10:00pm 19.7 E 9 14 1012.9 - 0.0 - - - - - - -
23/09:30pm 19.8 E 10 15 1013.6 - 0.0 - - - - - - -
23/09:00pm 19.9 E 9 14 1014.0 - 0.0 - - - - - - -
23/08:30pm 19.9 E 11 16 1013.8 - 0.0 - - - - - - -
23/08:00pm 19.9 E 10 16 1013.8 - 0.0 - - - - - - -
23/07:30pm 19.9 ESE 10 15 1013.8 - 0.0 - - - - - - -
23/07:00pm 20.0 ESE 11 16 1013.8 - 0.0 - - - - - - -
23/06:30pm 20.0 SE 9 14 1013.8 - 0.0 - - - - - - -
23/06:00pm 20.1 SE 10 15 1014.0 - 0.0 - - - - - - -
23/05:30pm 20.1 SE 11 16 1013.6 - 0.0 - - - - - - -
23/05:00pm 20.3 SE 10 16 1013.5 - 0.0 - - - - - - -
23/04:30pm 20.5 SSE 10 15 1013.6 - 0.0 - - - - - - -
23/04:00pm 20.8 SSE 11 16 1013.7 - 0.0 - - - - - - -
23/03:30pm 21.1 SE 9 14 1013.9 - 0.0 - - - - - - -
23/03:00pm 20.8 SE 9 14 1013.3 - 0.0 Haze Mostly cloudy 15 - - - -
23/02:30pm 20.9 ESE 10 16 1012.9 - 0.0 - - - - - - -
23/02:00pm 20.9 ESE 11 18 1012.9 - 0.0 - - - - - - -
23/01:30pm 21.5 ESE 13 20 1012.5 - 0.0 - - - - - - -
23/01:00pm 21.1 ESE 12 19 1013.2 - 0.0 - - - - - - -
23/12:30pm 22.1 ESE 11 16 1013.7 - 0.0 - - - - - - -
23/12:00pm 22.1 SE 11 18 1013.9 - 0.0 - - - - - - -
23/11:30am 22.0 SE 12 17 1014.2 - 0.0 - - - - - - -
23/11:00am 21.0 ESE 13 17 1014.1 - 0.0 - - - - - - -
23/10:30am 21.0 ESE 11 17 1014.3 - 0.0 - - - - - - -
23/10:00am 20.8 ESE 11 16 1014.5 - 0.0 - - - - - - -
23/09:30am 20.4 ESE 10 18 1014.6 - 0.0 - - - - - - -
23/09:00am 20.7 ESE 10 15 1015.3 - 0.2 Haze Mostly cloudy 20 - - - -
23/08:30am 20.2 SE 9 12 1016.0 - 0.2 - - - - - - -
23/08:00am 19.9 SSE 7 10 1016.1 - 0.2 - - - - - - -
23/07:30am 21.3 ENE 8 13 1015.0 - 0.2 - - - - - - -
23/07:00am 20.0 ENE 9 13 1014.4 - 0.2 - - - - - - -
23/06:30am 18.8 ENE 7 10 1014.4 - 0.2 - - - - - - -
23/06:00am 17.3 E 6 7 1014.2 - 0.2 - - - - - - -
23/05:30am 16.9 ENE 6 9 1014.0 - 0.2 - - - - - - -
23/05:00am 16.8 NE 9 13 1013.4 - 0.2 - - - - - - -
23/04:30am 16.6 NE 6 9 1013.9 - 0.2 - - - - - - -
23/04:00am 16.9 ENE 6 8 1013.5 - 0.2 - - - - - - -
23/03:30am 17.1 ENE 7 9 1013.3 - 0.2 - - - - - - -
23/03:00am 17.2 ENE 6 8 1013.5 - 0.2 - - - - - - -
23/02:30am 17.4 NE 5 6 1013.6 - 0.2 - - - - - - -
23/02:00am 18.4 NE 6 10 1013.8 - 0.2 - - - - - - -
23/01:30am 18.9 ENE 11 20 1013.2 - 0.2 - - - - - - -
23/01:00am 19.1 ENE 12 18 1013.0 - 0.2 - - - - - - -
23/12:30am 19.2 E 13 22 1013.8 - 0.2 - - - - - - -
23/12:00am 19.3 E 11 19 1014.3 - 0.2 - - - - - - -
 
Date/Time
WST
Temp
°C
Wind Pressure Rain since
9am
mm
Weather Cloud Vis
km
Sea
Height
m
Swell
Dir  Spd
kts
Gust
kts
hPa Trend Height
m
Period
s
Dir
22/11:30pm 19.4 E 11 18 1014.7 - 0.2 - - - - - - -
22/11:00pm 19.4 E 9 17 1015.2 - 0.2 - - - - - - -
22/10:30pm 19.3 E 10 16 1015.4 - 0.2 - - - - - - -
22/10:00pm 19.3 E 11 18 1015.6 - 0.2 - - - - - - -
22/09:30pm 19.4 E 13 21 1015.7 - 0.2 - - - - - - -
22/09:00pm 19.5 E 10 16 1016.3 - 0.2 - - - - - - -
22/08:30pm 19.6 ESE 11 17 1016.6 - 0.2 - - - - - - -
22/08:00pm 19.5 ESE 10 15 1016.7 - 0.2 - - - - - - -
22/07:30pm 19.6 ESE 10 17 1016.6 - 0.2 - - - - - - -
22/07:00pm 19.6 ESE 11 16 1016.3 - 0.2 - - - - - - -
22/06:30pm 19.7 ESE 10 17 1016.6 - 0.2 - - - - - - -
22/06:00pm 19.7 ESE 9 15 1016.5 - 0.2 - - - - - - -
22/05:30pm 19.9 ESE 10 16 1016.4 - 0.2 - - - - - - -
22/05:00pm 20.2 ESE 11 16 1015.9 - 0.2 - - - - - - -
22/04:30pm 20.9 ESE 11 16 1015.9 - 0.2 - - - - - - -
22/04:00pm 21.1 ESE 11 17 1015.7 - 0.2 - - - - - - -
22/03:30pm 21.4 ESE 11 19 1015.5 - 0.2 - - - - - - -
22/03:00pm 21.6 ESE 11 17 1015.7 - 0.2 Haze Partly cloudy 25 - - - -
22/02:30pm 22.6 ESE 11 17 1015.7 - 0.2 - - - - - - -
22/02:00pm 23.4 ESE 13 19 1015.6 - 0.2 - - - - - - -
22/01:30pm 23.3 ESE 12 18 1015.9 - 0.2 - - - - - - -
22/01:00pm 23.8 ESE 11 18 1015.9 - 0.2 - - - - - - -
22/12:30pm 23.8 ESE 13 19 1016.1 - 0.2 - - - - - - -
22/12:00pm 23.8 ESE 12 17 1016.5 - 0.2 - - - - - - -
22/11:30am 22.7 ESE 13 20 1016.9 - 0.2 - - - - - - -
22/11:00am 23.4 ESE 12 17 1017.2 - 0.2 - - - - - - -
22/10:30am 22.7 ESE 11 17 1017.5 - 0.2 - - - - - - -
22/10:00am 23.9 ESE 11 16 1017.5 - 0.2 - - - - - - -
22/09:30am 23.7 SE 11 16 1017.8 - 0.0 - - - - - - -
22/09:00am 23.1 ESE 8 14 1018.0 - 0.0 Fine Partly cloudy 40 - - - -
22/08:30am 22.5 E 7 11 1018.2 - 0.0 - - - - - - -
22/08:00am 21.8 E 7 13 1018.1 - 0.0 - - - - - - -
22/07:30am 21.0 ENE 7 10 1018.1 - 0.0 - - - - - - -
22/07:00am 19.2 NE 6 8 1017.7 - 0.0 - - - - - - -
22/06:30am 17.9 NE 4 6 1017.7 - 0.0 - - - - - - -
22/06:00am 16.5 ENE 4 5 1017.4 - 0.0 - - - - - - -

Other Formats:

Comma delimited format used in spreadsheet applications
http://www.bom.gov.au/fwo/IDW60701/IDW60701.94647.axf

JavaScript Object Notation format (JSON) in row-major order
http://www.bom.gov.au/fwo/IDW60701/IDW60701.94647.json